Time;durP1;ratioP1;P1;durP2;ratioP2;P2;SDS_P1;SDS_P2;PMS_P1;PMS_P2;Temp;Humidity;BMP_temperature;BMP_pressure;BME280_temperature;BME280_humidity;BME280_pressure;Samples;Min_cycle;Max_cycle;Signal;HPM_P1;HPM_P2
2023/03/03 00:00:07;;;;;;;78.60;30.37;;;1.70;99.90;;;;;;5088829;28;20277;-77
2023/03/03 00:02:40;;;;;;;72.57;27.37;;;1.70;99.90;;;;;;5088731;28;20285;-78
2023/03/03 00:05:08;;;;;;;79.10;31.03;;;1.70;99.90;;;;;;5084354;28;20233;-77
2023/03/03 00:07:35;;;;;;;74.10;28.97;;;1.80;99.90;;;;;;5088605;28;20209;-77
2023/03/03 00:10:01;;;;;;;71.20;27.80;;;1.90;99.90;;;;;;5084364;28;20213;-77
2023/03/03 00:12:30;;;;;;;68.87;26.87;;;1.90;99.90;;;;;;5088780;28;20296;-77
2023/03/03 00:14:58;;;;;;;73.23;29.03;;;1.90;99.90;;;;;;5087245;28;20327;-77
2023/03/03 00:17:27;;;;;;;71.00;28.87;;;2.00;99.90;;;;;;5085987;28;20704;-77
2023/03/03 00:19:55;;;;;;;78.77;29.70;;;2.20;99.90;;;;;;5091449;28;20216;-77
2023/03/03 00:22:29;;;;;;;67.63;27.50;;;2.10;99.90;;;;;;5108218;28;20577;-77
2023/03/03 00:24:58;;;;;;;71.10;27.97;;;1.70;99.90;;;;;;5096252;28;20251;-77
2023/03/03 00:27:30;;;;;;;64.33;21.57;;;2.20;99.90;;;;;;5087859;28;20298;-77
2023/03/03 00:29:59;;;;;;;75.33;27.50;;;2.10;99.90;;;;;;5082374;28;20588;-77
2023/03/03 00:32:30;;;;;;;63.27;24.13;;;2.20;99.90;;;;;;5088552;28;20245;-77
2023/03/03 00:35:02;;;;;;;72.83;27.90;;;2.10;99.90;;;;;;5087068;28;20245;-78
2023/03/03 00:37:32;;;;;;;69.73;27.70;;;2.30;99.90;;;;;;5095809;28;20211;-77
2023/03/03 00:40:14;;;;;;;53.60;20.13;;;2.10;99.90;;;;;;5087369;28;20591;-77
2023/03/03 00:42:42;;;;;;;64.90;23.67;;;2.10;99.90;;;;;;5084859;28;20209;-78
2023/03/03 00:45:29;;;;;;;69.20;25.90;;;2.10;99.90;;;;;;5086676;28;20239;-77
2023/03/03 00:47:57;;;;;;;65.13;24.50;;;2.00;99.90;;;;;;5089639;28;20203;-78
2023/03/03 00:50:31;;;;;;;67.87;26.70;;;2.10;99.90;;;;;;5088165;28;20216;-78
2023/03/03 00:53:05;;;;;;;55.07;18.80;;;2.10;99.90;;;;;;5087892;28;20669;-78
2023/03/03 00:55:34;;;;;;;60.37;25.20;;;2.10;99.90;;;;;;5086380;28;20225;-78
2023/03/03 00:58:01;;;;;;;63.30;24.20;;;2.10;99.90;;;;;;5087141;28;20221;-78
2023/03/03 01:00:35;;;;;;;66.00;24.93;;;2.10;99.90;;;;;;5090350;28;20216;-78
2023/03/03 01:03:05;;;;;;;61.87;25.30;;;2.10;99.90;;;;;;5084038;28;20234;-78
2023/03/03 01:05:33;;;;;;;58.30;20.33;;;1.80;99.90;;;;;;5090023;28;20212;-78
2023/03/03 01:08:00;;;;;;;64.20;24.53;;;2.00;99.90;;;;;;5090570;28;20261;-78
2023/03/03 01:10:29;;;;;;;62.63;24.60;;;2.00;99.90;;;;;;5087762;28;20232;-77
2023/03/03 01:12:57;;;;;;;67.37;27.03;;;2.00;99.90;;;;;;5087628;28;20448;-77
2023/03/03 01:15:24;;;;;;;69.77;25.70;;;2.00;99.90;;;;;;5086936;28;20644;-77
2023/03/03 01:17:54;;;;;;;63.43;24.73;;;2.00;99.90;;;;;;5086256;28;20205;-77
2023/03/03 01:20:21;;;;;;;65.13;25.73;;;2.00;99.90;;;;;;5083481;28;20549;-77
2023/03/03 01:22:48;;;;;;;73.60;28.67;;;2.00;99.90;;;;;;5083082;28;20271;-77
2023/03/03 01:25:15;;;;;;;52.27;21.13;;;2.00;99.90;;;;;;5090509;28;20209;-77
2023/03/03 01:27:42;;;;;;;66.80;27.20;;;2.00;99.90;;;;;;5087302;28;20574;-77
2023/03/03 01:30:10;;;;;;;68.97;28.90;;;2.10;99.90;;;;;;5086103;28;20208;-77
2023/03/03 01:32:37;;;;;;;58.03;24.27;;;2.10;99.90;;;;;;5084193;28;20710;-77
2023/03/03 01:35:06;;;;;;;69.63;27.87;;;2.10;99.90;;;;;;5084534;28;20241;-77
2023/03/03 01:37:34;;;;;;;51.77;21.27;;;2.10;99.90;;;;;;5087911;28;20212;-77
2023/03/03 01:40:04;;;;;;;66.23;27.77;;;2.10;99.90;;;;;;5085664;28;20223;-77
2023/03/03 01:42:31;;;;;;;75.43;30.40;;;2.10;99.90;;;;;;5086236;28;20216;-77
2023/03/03 01:45:15;;;;;;;65.67;26.13;;;2.00;99.90;;;;;;5090081;28;20291;-77
2023/03/03 01:47:47;;;;;;;50.23;18.57;;;2.10;99.90;;;;;;5097607;28;20225;-78
2023/03/03 01:50:26;;;;;;;70.07;29.93;;;2.10;99.90;;;;;;5090574;28;20208;-78
2023/03/03 01:52:54;;;;;;;75.67;28.60;;;2.10;99.90;;;;;;5076402;28;20219;-77
2023/03/03 01:55:25;;;;;;;60.93;25.17;;;2.00;99.90;;;;;;5088199;28;20410;-77
2023/03/03 01:57:57;;;;;;;70.53;26.30;;;2.10;99.90;;;;;;5086255;28;20228;-77
2023/03/03 02:00:25;;;;;;;56.20;20.43;;;2.00;99.90;;;;;;5078932;28;20230;-77
2023/03/03 02:02:52;;;;;;;61.03;24.10;;;2.00;99.90;;;;;;5081594;28;20566;-77
2023/03/03 02:05:21;;;;;;;61.70;24.87;;;2.00;99.90;;;;;;5087152;28;20200;-77
2023/03/03 02:07:48;;;;;;;70.80;28.93;;;1.90;99.90;;;;;;5085685;28;20216;-78
2023/03/03 02:10:16;;;;;;;72.07;29.30;;;2.00;99.90;;;;;;5085922;28;20228;-77
2023/03/03 02:12:48;;;;;;;73.70;28.13;;;2.00;99.90;;;;;;5085182;28;20417;-77
2023/03/03 02:15:20;;;;;;;61.10;24.80;;;2.00;99.90;;;;;;5087688;28;20211;-78
2023/03/03 02:17:49;;;;;;;58.97;20.77;;;2.00;99.90;;;;;;5081964;28;20221;-78
2023/03/03 02:20:25;;;;;;;61.30;24.73;;;2.00;99.90;;;;;;5085091;28;20239;-77
2023/03/03 02:22:58;;;;;;;60.10;18.70;;;1.40;99.90;;;;;;5086748;28;20284;-77
2023/03/03 02:25:32;;;;;;;67.07;26.53;;;1.90;99.90;;;;;;5085224;28;20221;-77
2023/03/03 02:28:01;;;;;;;72.00;30.33;;;1.90;99.90;;;;;;5085149;28;20295;-77
2023/03/03 02:30:28;;;;;;;67.77;25.53;;;1.90;99.90;;;;;;5087017;28;20666;-77
2023/03/03 02:32:55;;;;;;;64.30;27.50;;;2.10;99.90;;;;;;5080039;28;20318;-77
2023/03/03 02:35:29;;;;;;;67.63;25.60;;;2.00;99.90;;;;;;5084492;28;20315;-77
2023/03/03 02:38:01;;;;;;;64.30;25.70;;;2.00;99.90;;;;;;5081223;28;20287;-77
2023/03/03 02:40:33;;;;;;;59.57;23.77;;;2.10;99.90;;;;;;5085092;28;21002;-77
2023/03/03 02:43:03;;;;;;;68.53;28.97;;;2.00;99.90;;;;;;5085742;28;20212;-77
2023/03/03 02:45:32;;;;;;;53.33;22.60;;;2.00;99.90;;;;;;5078394;28;20199;-77
2023/03/03 02:47:59;;;;;;;57.97;22.70;;;1.90;99.90;;;;;;5084505;28;20216;-78
2023/03/03 02:50:26;;;;;;;58.87;22.67;;;1.90;99.90;;;;;;5081399;28;20221;-75
2023/03/03 02:52:53;;;;;;;72.93;28.83;;;1.90;99.90;;;;;;5083333;28;20240;-76
2023/03/03 02:55:20;;;;;;;72.03;27.60;;;1.90;99.90;;;;;;5084316;28;20200;-76
2023/03/03 02:57:47;;;;;;;65.87;26.30;;;1.90;99.90;;;;;;5088814;28;20209;-76
2023/03/03 03:00:15;;;;;;;51.23;20.17;;;2.00;99.90;;;;;;5088695;28;20215;-76
2023/03/03 03:02:43;;;;;;;56.83;22.50;;;2.00;99.90;;;;;;5091411;28;20688;-76
2023/03/03 03:05:10;;;;;;;62.63;22.67;;;1.90;99.90;;;;;;5091450;28;20244;-76
2023/03/03 03:07:39;;;;;;;51.73;19.13;;;1.90;99.90;;;;;;5089217;28;20277;-76
2023/03/03 03:10:09;;;;;;;44.07;18.60;;;1.90;99.90;;;;;;5085753;28;20204;-76
2023/03/03 03:12:38;;;;;;;64.20;26.60;;;1.90;99.90;;;;;;5088088;28;20225;-76
2023/03/03 03:15:08;;;;;;;65.17;24.93;;;1.80;99.90;;;;;;5086011;28;20236;-76
2023/03/03 03:17:37;;;;;;;63.97;25.20;;;1.80;99.90;;;;;;5088799;28;20217;-76
2023/03/03 03:20:06;;;;;;;66.13;26.30;;;1.90;99.90;;;;;;5084247;28;20202;-76
2023/03/03 03:22:33;;;;;;;73.77;28.03;;;1.80;99.90;;;;;;5087829;28;20212;-76
2023/03/03 03:25:00;;;;;;;72.57;27.80;;;1.80;99.90;;;;;;5088655;28;20239;-76
2023/03/03 03:27:27;;;;;;;64.77;27.60;;;1.80;99.90;;;;;;5084228;28;20278;-76
2023/03/03 03:29:54;;;;;;;66.43;26.10;;;1.90;99.90;;;;;;5087235;28;20205;-77
2023/03/03 03:32:22;;;;;;;71.47;26.57;;;1.90;99.90;;;;;;5087602;28;20226;-76
2023/03/03 03:34:51;;;;;;;68.47;25.03;;;2.00;99.90;;;;;;5088669;28;20350;-76
2023/03/03 03:37:18;;;;;;;67.63;27.20;;;2.00;99.90;;;;;;5088131;28;20652;-76
2023/03/03 03:39:46;;;;;;;64.33;26.57;;;2.00;99.90;;;;;;5084703;28;20204;-76
2023/03/03 03:42:14;;;;;;;70.43;28.47;;;2.10;99.90;;;;;;5087750;28;20573;-76
2023/03/03 03:44:41;;;;;;;66.47;26.23;;;2.10;99.90;;;;;;5083449;28;20277;-76
2023/03/03 03:47:08;;;;;;;66.67;24.93;;;2.10;99.90;;;;;;5091943;28;20267;-76
2023/03/03 03:49:36;;;;;;;70.80;28.90;;;2.10;99.90;;;;;;5107514;28;20209;-75
2023/03/03 03:52:05;;;;;;;70.70;27.50;;;2.00;99.90;;;;;;5096149;22;20312;-75
2023/03/03 03:54:33;;;;;;;67.80;26.73;;;2.10;99.90;;;;;;5063750;28;20255;-76
2023/03/03 03:57:00;;;;;;;67.60;27.30;;;2.10;99.90;;;;;;5089378;28;20255;-74
2023/03/03 03:59:28;;;;;;;73.40;29.03;;;2.10;99.90;;;;;;5074365;28;20204;-77
2023/03/03 04:01:55;;;;;;;69.57;25.67;;;2.10;99.90;;;;;;5577811;22;20230;-76
2023/03/03 04:04:24;;;;;;;66.83;25.47;;;2.50;99.90;;;;;;5065930;28;20565;-75
2023/03/03 04:06:51;;;;;;;68.67;26.90;;;2.00;99.90;;;;;;5092401;28;20322;-75
2023/03/03 04:09:19;;;;;;;74.87;27.80;;;2.00;99.90;;;;;;5072829;28;20220;-76
2023/03/03 04:11:46;;;;;;;82.30;30.50;;;2.00;99.90;;;;;;5070855;28;20333;-75
2023/03/03 04:14:14;;;;;;;79.23;30.97;;;2.00;99.90;;;;;;5070594;28;20228;-75
2023/03/03 04:16:42;;;;;;;84.10;31.60;;;2.00;99.90;;;;;;5069821;28;20236;-75
2023/03/03 04:19:10;;;;;;;87.00;33.53;;;2.50;99.90;;;;;;5069810;28;20236;-75
2023/03/03 04:21:39;;;;;;;79.57;29.30;;;2.00;99.90;;;;;;5069551;28;20756;-75
2023/03/03 04:24:07;;;;;;;81.70;29.97;;;2.00;99.90;;;;;;5070300;28;20264;-75
2023/03/03 04:26:35;;;;;;;76.43;30.87;;;1.90;99.90;;;;;;5066904;28;20924;-76
2023/03/03 04:29:04;;;;;;;86.30;31.30;;;1.80;99.90;;;;;;5069694;28;20227;-75
2023/03/03 04:31:31;;;;;;;83.80;29.07;;;1.90;99.90;;;;;;5065899;28;20334;-76
2023/03/03 04:33:59;;;;;;;81.07;29.10;;;1.80;99.90;;;;;;5070499;28;20216;-75
2023/03/03 04:36:26;;;;;;;84.17;31.60;;;1.70;99.90;;;;;;5068061;28;20213;-77
2023/03/03 04:38:53;;;;;;;74.83;29.40;;;1.70;99.90;;;;;;5088748;28;20216;-77
2023/03/03 04:41:20;;;;;;;71.87;26.17;;;1.70;99.90;;;;;;5069913;28;20282;-77
2023/03/03 04:43:48;;;;;;;83.50;28.60;;;1.70;99.90;;;;;;5070177;28;20249;-76
2023/03/03 04:46:15;;;;;;;58.70;20.53;;;1.60;99.90;;;;;;5088519;28;20215;-77
2023/03/03 04:48:43;;;;;;;75.10;27.03;;;1.60;99.90;;;;;;5068616;28;20219;-78
2023/03/03 04:51:10;;;;;;;62.77;25.67;;;1.50;99.90;;;;;;5064570;28;20323;-75
2023/03/03 04:53:38;;;;;;;60.00;24.13;;;1.50;99.90;;;;;;5067877;28;20278;-75
2023/03/03 04:56:07;;;;;;;63.33;24.40;;;1.50;99.90;;;;;;5069449;28;20297;-77
2023/03/03 04:58:34;;;;;;;78.17;30.03;;;1.50;99.90;;;;;;5069099;28;20291;-75
2023/03/03 05:01:03;;;;;;;60.23;19.77;;;1.50;99.90;;;;;;5064409;28;20300;-76
2023/03/03 05:03:32;;;;;;;84.77;28.73;;;1.50;99.90;;;;;;5066298;28;20235;-76
2023/03/03 05:05:59;;;;;;;75.43;29.37;;;1.50;99.90;;;;;;5074800;28;20472;-76
2023/03/03 05:08:26;;;;;;;73.20;27.03;;;1.50;99.90;;;;;;5066948;28;20294;-76
2023/03/03 05:10:54;;;;;;;58.17;20.57;;;1.50;99.90;;;;;;5090317;28;20228;-75
2023/03/03 05:13:21;;;;;;;65.43;24.13;;;1.50;99.90;;;;;;5091111;28;20220;-75
2023/03/03 05:15:52;;;;;;;74.03;28.73;;;1.50;99.90;;;;;;5083850;28;20223;-76
2023/03/03 05:18:20;;;;;;;75.27;28.53;;;1.50;99.90;;;;;;5081180;28;20262;-76
2023/03/03 05:20:47;;;;;;;76.13;29.60;;;1.50;99.90;;;;;;5088100;28;20289;-76
2023/03/03 05:23:14;;;;;;;60.57;23.07;;;1.50;99.90;;;;;;5089960;28;20212;-76
2023/03/03 05:25:41;;;;;;;74.83;28.37;;;1.50;99.90;;;;;;5070865;28;20216;-75
2023/03/03 05:28:09;;;;;;;75.10;28.93;;;1.60;99.90;;;;;;5106197;28;20216;-77
2023/03/03 05:30:36;;;;;;;75.40;30.33;;;1.60;99.90;;;;;;5113969;28;20222;-79
2023/03/03 05:33:04;;;;;;;58.80;20.67;;;1.60;99.90;;;;;;5112472;28;20408;-77
2023/03/03 05:35:32;;;;;;;59.33;21.27;;;1.70;99.90;;;;;;5096271;28;20253;-75
2023/03/03 05:37:59;;;;;;;56.60;20.80;;;1.70;99.90;;;;;;5067836;28;20942;-77
2023/03/03 05:40:27;;;;;;;72.87;26.83;;;1.60;99.90;;;;;;5075611;28;20251;-76
2023/03/03 05:42:54;;;;;;;61.17;23.13;;;1.70;99.90;;;;;;5089789;28;20199;-75
2023/03/03 05:45:23;;;;;;;56.93;20.83;;;1.60;99.90;;;;;;5086726;28;20220;-75
2023/03/03 05:47:50;;;;;;;60.70;22.43;;;1.60;99.90;;;;;;5080023;28;20220;-74
2023/03/03 05:53:01;;;;;;;61.37;22.60;;;1.50;99.90;;;;;;5439902;22;20217;-76
2023/03/03 05:55:28;;;;;;;48.47;17.87;;;1.50;99.90;;;;;;5079249;28;20291;-75
2023/03/03 05:57:55;;;;;;;57.90;23.47;;;1.50;99.90;;;;;;5053305;28;20669;-74
2023/03/03 06:00:23;;;;;;;50.37;18.00;;;1.50;99.90;;;;;;5062988;28;20209;-76
2023/03/03 06:02:49;;;;;;;54.73;20.63;;;1.50;99.90;;;;;;5069977;28;20666;-77
2023/03/03 06:05:17;;;;;;;57.77;22.20;;;1.40;99.90;;;;;;5046743;28;20213;-75
2023/03/03 06:07:44;;;;;;;52.47;20.80;;;1.50;99.90;;;;;;5115187;22;20254;-73
2023/03/03 06:10:13;;;;;;;56.10;23.67;;;1.50;99.90;;;;;;5104481;28;20290;-75
2023/03/03 06:12:42;;;;;;;54.77;22.00;;;1.50;99.90;;;;;;5100546;28;20211;-73
2023/03/03 06:15:10;;;;;;;59.40;24.37;;;1.60;99.90;;;;;;5107329;28;20207;-74
2023/03/03 06:17:36;;;;;;;56.97;22.77;;;1.70;99.90;;;;;;5603075;22;20265;-74
2023/03/03 06:20:04;;;;;;;56.87;20.90;;;1.70;99.90;;;;;;5062817;28;20207;-74
2023/03/03 06:22:31;;;;;;;46.27;18.27;;;1.80;99.90;;;;;;5050969;28;20258;-75
2023/03/03 06:24:58;;;;;;;70.40;26.47;;;1.80;99.90;;;;;;5066402;28;20627;-74
2023/03/03 06:27:26;;;;;;;71.50;28.23;;;1.80;99.90;;;;;;5068370;28;20233;-75
2023/03/03 06:29:53;;;;;;;64.90;22.60;;;1.80;99.90;;;;;;5083444;28;20223;-75
2023/03/03 06:32:20;;;;;;;82.00;30.53;;;1.80;99.90;;;;;;5072015;28;20224;-76
2023/03/03 06:34:47;;;;;;;74.83;28.83;;;1.80;99.90;;;;;;5071333;28;20215;-75
2023/03/03 06:37:14;;;;;;;75.23;29.53;;;1.80;99.90;;;;;;5077955;28;20660;-75
2023/03/03 06:39:41;;;;;;;81.50;27.53;;;1.80;99.90;;;;;;5071978;28;20220;-75
2023/03/03 06:42:08;;;;;;;73.90;28.00;;;1.90;99.90;;;;;;5078184;28;20200;-73
2023/03/03 06:44:36;;;;;;;86.17;30.77;;;1.90;99.90;;;;;;5081024;28;20231;-74
2023/03/03 06:47:04;;;;;;;77.27;27.30;;;2.00;99.90;;;;;;5080272;28;20220;-75
2023/03/03 06:49:31;;;;;;;74.27;29.40;;;2.00;99.90;;;;;;5067543;28;20579;-76
2023/03/03 06:52:01;;;;;;;92.13;32.87;;;2.00;99.90;;;;;;5083763;28;20282;-76
2023/03/03 06:54:29;;;;;;;81.17;29.70;;;2.10;99.90;;;;;;5077041;28;20205;-76
2023/03/03 06:56:59;;;;;;;67.57;24.80;;;2.20;99.90;;;;;;5081254;28;20230;-75
2023/03/03 06:59:27;;;;;;;62.03;22.93;;;2.20;99.90;;;;;;5079307;28;20223;-75
2023/03/03 07:01:56;;;;;;;69.53;26.37;;;2.20;99.90;;;;;;5084106;28;20785;-75
2023/03/03 07:04:29;;;;;;;78.20;29.13;;;2.20;99.90;;;;;;5091134;28;20208;-75
2023/03/03 07:06:57;;;;;;;74.60;28.77;;;2.20;99.90;;;;;;5075365;28;20263;-75
2023/03/03 07:09:26;;;;;;;82.27;29.37;;;2.20;99.90;;;;;;5079359;28;20212;-75
2023/03/03 07:11:56;;;;;;;76.67;28.47;;;2.20;99.90;;;;;;5066325;28;20299;-75
2023/03/03 07:14:23;;;;;;;77.07;27.37;;;2.20;99.90;;;;;;5079223;28;20223;-75
2023/03/03 07:16:56;;;;;;;73.90;25.40;;;2.20;99.90;;;;;;5094311;28;20232;-74
2023/03/03 07:19:31;;;;;;;78.67;27.83;;;2.20;99.90;;;;;;5083582;28;20210;-75
2023/03/03 07:22:00;;;;;;;74.03;27.73;;;2.20;99.90;;;;;;5083981;28;20198;-78
2023/03/03 07:24:28;;;;;;;83.33;29.63;;;2.20;99.90;;;;;;5084149;28;20265;-75
2023/03/03 07:27:06;;;;;;;80.90;29.07;;;2.20;99.90;;;;;;5071256;28;20717;-75
2023/03/03 07:29:34;;;;;;;67.17;23.77;;;2.30;99.90;;;;;;5085910;28;20201;-75
2023/03/03 07:32:02;;;;;;;64.17;23.23;;;2.30;99.90;;;;;;5078230;28;20205;-76
2023/03/03 07:34:39;;;;;;;70.50;28.13;;;2.30;99.90;;;;;;5077750;28;20226;-76
2023/03/03 07:37:14;;;;;;;70.33;27.00;;;2.40;99.90;;;;;;5077656;28;20245;-74
2023/03/03 07:39:45;;;;;;;74.53;28.27;;;2.50;99.90;;;;;;5081227;28;20879;-77
2023/03/03 07:42:20;;;;;;;64.27;27.37;;;2.60;99.90;;;;;;5083273;28;20205;-75
2023/03/03 07:44:55;;;;;;;47.87;16.13;;;2.60;99.90;;;;;;5064499;28;20611;-76
2023/03/03 07:47:25;;;;;;;72.67;27.57;;;2.60;99.90;;;;;;5078365;28;20237;-76
2023/03/03 07:49:55;;;;;;;59.40;23.20;;;2.60;99.90;;;;;;5084310;28;20202;-76
2023/03/03 07:52:26;;;;;;;73.23;26.50;;;2.60;99.90;;;;;;5082213;28;20531;-75
2023/03/03 07:54:55;;;;;;;70.37;27.33;;;2.60;99.90;;;;;;5085490;28;20218;-73
2023/03/03 07:57:25;;;;;;;67.83;28.37;;;2.60;99.90;;;;;;5069335;28;20243;-75
2023/03/03 07:59:53;;;;;;;70.37;27.07;;;2.70;99.90;;;;;;5068362;28;20236;-75
2023/03/03 08:02:45;;;;;;;70.77;27.53;;;2.80;99.90;;;;;;5079971;28;20204;-75
2023/03/03 08:05:30;;;;;;;70.27;27.67;;;2.90;99.90;;;;;;5054581;28;20204;-74
2023/03/03 08:08:14;;;;;;;73.37;28.83;;;3.70;99.90;;;;;;5062233;28;20244;-74
2023/03/03 08:10:46;;;;;;;78.80;31.37;;;3.00;99.90;;;;;;5080065;28;20264;-75
2023/03/03 08:13:20;;;;;;;67.47;28.30;;;3.00;99.90;;;;;;5071347;28;20223;-74
2023/03/03 08:15:50;;;;;;;70.63;27.40;;;3.00;99.90;;;;;;5075956;28;20209;-75
2023/03/03 08:18:28;;;;;;;80.20;30.60;;;3.00;99.90;;;;;;5069543;28;20740;-75
2023/03/03 08:20:58;;;;;;;81.53;30.43;;;3.00;99.90;;;;;;5081845;28;20625;-75
2023/03/03 08:23:25;;;;;;;76.00;29.27;;;3.00;99.90;;;;;;5064037;28;20223;-74
2023/03/03 08:25:53;;;;;;;82.47;30.50;;;3.10;99.90;;;;;;5079583;28;20212;-73
2023/03/03 08:28:21;;;;;;;78.97;29.07;;;3.20;99.90;;;;;;5087531;28;20233;-74
2023/03/03 08:30:49;;;;;;;76.10;30.43;;;3.20;99.90;;;;;;5087609;28;20240;-74
2023/03/03 08:33:16;;;;;;;71.57;27.20;;;3.10;99.90;;;;;;5062754;28;20237;-74
2023/03/03 08:35:44;;;;;;;77.23;28.30;;;3.20;99.90;;;;;;5078224;28;20613;-74
2023/03/03 08:38:14;;;;;;;48.57;19.43;;;3.10;99.90;;;;;;5080153;28;20230;-75
2023/03/03 08:40:41;;;;;;;72.50;29.37;;;3.00;99.90;;;;;;5062474;28;20245;-75
2023/03/03 08:43:08;;;;;;;69.30;28.03;;;3.00;99.90;;;;;;5079591;28;20576;-75
2023/03/03 08:45:36;;;;;;;74.17;29.47;;;3.00;99.90;;;;;;5074400;28;20285;-75
2023/03/03 08:48:03;;;;;;;81.17;33.13;;;3.00;99.90;;;;;;5075795;28;20843;-74
2023/03/03 08:50:31;;;;;;;84.27;32.43;;;3.00;99.90;;;;;;5066858;28;20219;-76
2023/03/03 08:52:58;;;;;;;80.20;32.03;;;3.00;99.90;;;;;;5080279;28;20227;-74
2023/03/03 08:55:27;;;;;;;83.47;32.83;;;3.00;99.90;;;;;;5083642;28;20220;-74
2023/03/03 08:57:54;;;;;;;60.53;26.53;;;3.10;99.90;;;;;;5073372;28;20600;-74
2023/03/03 09:00:21;;;;;;;75.17;31.10;;;3.20;99.90;;;;;;5082976;28;20213;-74
2023/03/03 09:02:49;;;;;;;73.13;30.10;;;4.40;99.90;;;;;;5085336;28;20200;-74
2023/03/03 09:05:17;;;;;;;75.77;30.27;;;3.20;99.90;;;;;;5078678;28;20216;-75
2023/03/03 09:07:45;;;;;;;73.83;31.20;;;3.30;99.90;;;;;;5085129;28;20226;-74
2023/03/03 09:10:13;;;;;;;73.63;29.53;;;3.40;99.90;;;;;;5084149;28;20278;-73
2023/03/03 09:12:47;;;;;;;73.53;27.20;;;3.40;99.90;;;;;;5085700;28;20207;-73
2023/03/03 09:15:25;;;;;;;76.33;29.17;;;3.50;99.90;;;;;;5070705;28;20212;-73
2023/03/03 09:17:53;;;;;;;72.00;27.77;;;3.60;99.90;;;;;;5072826;28;20242;-74
2023/03/03 09:20:33;;;;;;;53.07;20.27;;;3.70;99.90;;;;;;5079205;28;20207;-74
2023/03/03 09:23:30;;;;;;;76.70;31.10;;;3.70;99.90;;;;;;5062106;28;20272;-74
2023/03/03 09:25:58;;;;;;;60.13;23.50;;;3.80;99.90;;;;;;5061535;28;20227;-73
2023/03/03 09:28:29;;;;;;;48.17;17.50;;;3.90;99.90;;;;;;5075039;28;20579;-74
2023/03/03 09:31:00;;;;;;;63.47;23.83;;;4.00;99.90;;;;;;5084653;28;20217;-74
2023/03/03 09:33:29;;;;;;;70.63;27.13;;;3.90;99.90;;;;;;5069783;28;20307;-74
2023/03/03 09:36:06;;;;;;;80.23;29.17;;;3.90;99.90;;;;;;5063938;28;20754;-74
2023/03/03 09:38:40;;;;;;;64.87;23.77;;;3.90;99.90;;;;;;5081271;28;20200;-74
2023/03/03 09:41:36;;;;;;;72.63;28.97;;;3.90;99.90;;;;;;5091094;28;20635;-74
2023/03/03 09:44:38;;;;;;;70.90;28.87;;;4.00;99.90;;;;;;5063706;28;20619;-74
2023/03/03 09:47:22;;;;;;;79.70;27.83;;;4.30;99.90;;;;;;5598200;22;20194;-74
2023/03/03 09:49:58;;;;;;;71.30;29.47;;;4.30;99.90;;;;;;5081126;28;20207;-74
2023/03/03 09:52:37;;;;;;;46.33;18.03;;;4.40;99.90;;;;;;5081644;28;20210;-74
2023/03/03 09:55:18;;;;;;;76.50;29.97;;;4.40;99.90;;;;;;5085677;28;20283;-74
2023/03/03 09:58:02;;;;;;;60.10;22.93;;;4.50;99.90;;;;;;5086315;28;20236;-74
2023/03/03 10:00:40;;;;;;;73.37;27.47;;;4.40;99.90;;;;;;5069735;28;20208;-74
2023/03/03 10:03:45;;;;;;;77.27;30.73;;;4.50;99.90;;;;;;5080215;28;20352;-74
2023/03/03 10:06:21;;;;;;;71.93;29.97;;;4.50;99.90;;;;;;5073702;28;20707;-75
2023/03/03 10:09:06;;;;;;;59.13;21.93;;;4.60;99.90;;;;;;5081323;28;20692;-74
2023/03/03 10:11:40;;;;;;;68.43;28.97;;;4.70;99.90;;;;;;5076241;28;20264;-74
2023/03/03 10:14:23;;;;;;;58.70;24.87;;;4.70;99.90;;;;;;5087968;28;20223;-74
2023/03/03 10:17:06;;;;;;;69.20;30.03;;;4.70;99.90;;;;;;5091941;28;20223;-75
2023/03/03 10:19:38;;;;;;;75.47;30.57;;;4.60;99.90;;;;;;5095338;28;20213;-75
2023/03/03 10:22:18;;;;;;;67.83;28.63;;;4.70;99.90;;;;;;5093742;28;20203;-75
2023/03/03 10:24:57;;;;;;;71.17;30.13;;;4.70;99.90;;;;;;5076085;28;20203;-74
2023/03/03 10:27:36;;;;;;;66.03;26.97;;;4.90;99.90;;;;;;5095201;28;20215;-75
2023/03/03 10:30:10;;;;;;;63.63;26.07;;;5.00;99.90;;;;;;5090750;28;20212;-75
2023/03/03 10:32:48;;;;;;;55.00;23.73;;;5.20;99.90;;;;;;5082950;28;20199;-75
2023/03/03 10:35:39;;;;;;;54.60;23.10;;;5.30;99.90;;;;;;5078334;28;20308;-74
2023/03/03 10:38:30;;;;;;;56.17;23.17;;;5.30;99.90;;;;;;5084195;28;20230;-74
2023/03/03 10:41:09;;;;;;;53.70;22.80;;;5.20;99.90;;;;;;5084781;28;20206;-74
2023/03/03 10:44:04;;;;;;;56.33;22.73;;;5.20;99.90;;;;;;5088807;28;20226;-74
2023/03/03 10:46:45;;;;;;;52.03;21.53;;;5.40;99.90;;;;;;5077263;28;20235;-74
2023/03/03 10:49:26;;;;;;;54.90;23.10;;;5.60;99.90;;;;;;5082605;28;20292;-74
2023/03/03 10:52:29;;;;;;;60.43;24.83;;;5.50;99.90;;;;;;5084622;28;20207;-74
2023/03/03 10:55:13;;;;;;;35.47;15.20;;;5.50;99.90;;;;;;5085019;28;20314;-74
2023/03/03 10:57:52;;;;;;;62.37;28.10;;;5.50;99.90;;;;;;5086073;28;20680;-74
2023/03/03 11:00:24;;;;;;;65.43;26.40;;;5.50;99.90;;;;;;5080805;28;20254;-75
2023/03/03 11:03:29;;;;;;;70.67;30.87;;;6.50;99.90;;;;;;5089528;28;20207;-75
2023/03/03 11:06:00;;;;;;;58.70;24.73;;;5.80;99.90;;;;;;5071740;28;20753;-74
2023/03/03 11:08:33;;;;;;;57.37;27.73;;;5.90;99.90;;;;;;5086559;28;20729;-74
2023/03/03 11:11:09;;;;;;;61.90;27.30;;;5.90;99.90;;;;;;5079827;28;20212;-74
2023/03/03 11:13:45;;;;;;;58.63;26.50;;;6.00;99.90;;;;;;5074894;28;20243;-74
2023/03/03 11:16:33;;;;;;;61.20;27.30;;;6.20;99.90;;;;;;5088514;28;20207;-75
2023/03/03 11:19:10;;;;;;;56.97;26.87;;;6.20;99.90;;;;;;5078005;28;20207;-73
2023/03/03 11:21:46;;;;;;;53.57;23.90;;;6.10;99.90;;;;;;5084325;28;20698;-74
2023/03/03 11:24:38;;;;;;;59.47;27.73;;;5.90;99.90;;;;;;5077236;28;20206;-74
2023/03/03 11:27:29;;;;;;;52.03;22.50;;;5.70;99.90;;;;;;5085260;28;20715;-75
2023/03/03 11:30:15;;;;;;;51.73;21.43;;;5.70;99.90;;;;;;5084154;28;20212;-73
2023/03/03 11:32:48;;;;;;;56.70;23.37;;;5.60;99.90;;;;;;5081652;28;20295;-75
2023/03/03 11:35:23;;;;;;;56.37;23.57;;;5.70;99.90;;;;;;5084259;28;20239;-74
2023/03/03 11:38:04;;;;;;;43.67;18.47;;;5.90;99.90;;;;;;5081798;28;20632;-74
2023/03/03 11:40:41;;;;;;;47.17;19.37;;;6.00;99.90;;;;;;5085001;28;20208;-74
2023/03/03 11:43:17;;;;;;;53.37;23.20;;;6.00;99.90;;;;;;5084736;28;20215;-74
2023/03/03 11:45:48;;;;;;;54.27;22.57;;;6.00;99.90;;;;;;5080225;28;20203;-74
2023/03/03 11:48:20;;;;;;;46.30;22.53;;;5.90;99.90;;;;;;5078889;28;20274;-74
2023/03/03 11:50:55;;;;;;;50.80;22.90;;;5.90;99.90;;;;;;5072997;28;20204;-74
2023/03/03 11:53:44;;;;;;;54.43;23.80;;;6.00;99.90;;;;;;5091319;28;20213;-74
2023/03/03 11:56:23;;;;;;;52.60;22.13;;;6.10;99.90;;;;;;5089598;28;20200;-74
2023/03/03 11:58:58;;;;;;;54.47;23.60;;;6.10;99.90;;;;;;5082157;28;20205;-74
2023/03/03 12:01:32;;;;;;;47.50;22.57;;;6.20;99.90;;;;;;5087931;28;20223;-75
2023/03/03 12:04:02;;;;;;;50.60;22.13;;;6.30;99.90;;;;;;5085806;28;20275;-75
2023/03/03 12:09:29;;;;;;;56.13;24.87;;;6.80;99.90;;;;;;5271708;22;20247;-75
2023/03/03 12:12:03;;;;;;;55.23;23.97;;;6.90;99.90;;;;;;5088169;28;20214;-75
2023/03/03 12:14:48;;;;;;;51.77;23.50;;;6.90;99.90;;;;;;5088842;28;20218;-75
2023/03/03 12:17:25;;;;;;;53.20;22.63;;;6.90;99.90;;;;;;5073932;28;20246;-75
2023/03/03 12:19:57;;;;;;;52.90;24.33;;;6.90;99.90;;;;;;5062691;28;20223;-75
2023/03/03 12:22:33;;;;;;;51.43;25.20;;;6.90;99.90;;;;;;5081466;28;20207;-74
2023/03/03 12:25:30;;;;;;;49.73;23.80;;;6.90;99.90;;;;;;5072938;28;20231;-74
2023/03/03 12:28:05;;;;;;;52.13;24.17;;;6.90;99.90;;;;;;5055071;28;20240;-74
2023/03/03 12:30:45;;;;;;;55.60;24.20;;;7.00;99.90;;;;;;5066229;28;20295;-74
2023/03/03 12:33:22;;;;;;;51.83;24.03;;;7.20;99.90;;;;;;5062442;28;20207;-74
2023/03/03 12:35:58;;;;;;;51.80;24.73;;;7.40;99.90;;;;;;5049539;28;20371;-74
2023/03/03 12:38:33;;;;;;;54.10;25.27;;;7.60;99.90;;;;;;5073901;28;20211;-74
2023/03/03 12:41:08;;;;;;;49.77;24.60;;;7.80;99.90;;;;;;5076233;28;20211;-74
2023/03/03 12:43:52;;;;;;;50.77;25.60;;;7.80;99.90;;;;;;5066742;28;20223;-73
2023/03/03 12:46:25;;;;;;;50.87;25.73;;;8.00;99.90;;;;;;5044348;28;20232;-75
2023/03/03 12:48:52;;;;;;;39.87;19.33;;;8.20;99.90;;;;;;5074655;28;20216;-75
2023/03/03 12:51:33;;;;;;;57.90;27.80;;;8.30;99.90;;;;;;5064620;28;20212;-74
2023/03/03 12:54:32;;;;;;;55.17;27.50;;;8.10;99.90;;;;;;5058469;28;20258;-75
2023/03/03 12:57:13;;;;;;;52.20;26.07;;;7.80;99.90;;;;;;5056883;28;20225;-75
2023/03/03 12:59:48;;;;;;;54.80;25.67;;;7.70;99.90;;;;;;5066183;28;20375;-75
2023/03/03 13:02:41;;;;;;;55.50;25.80;;;7.70;99.90;;;;;;5048241;28;20200;-74
2023/03/03 13:05:24;;;;;;;53.33;26.53;;;7.70;99.90;;;;;;5069762;28;20192;-74